sensor_id;sensor_type;location;lat;lon;timestamp;temperature;humidity
48744;DHT22;34538;48.836;9.174;2022-12-10T00:02:11;2.30;99.90
48744;DHT22;34538;48.836;9.174;2022-12-10T00:04:38;2.30;99.90
48744;DHT22;34538;48.836;9.174;2022-12-10T00:07:05;2.30;99.90
48744;DHT22;34538;48.836;9.174;2022-12-10T00:09:32;2.30;99.90
48744;DHT22;34538;48.836;9.174;2022-12-10T00:11:59;2.30;99.90
48744;DHT22;34538;48.836;9.174;2022-12-10T00:14:26;2.30;99.90
48744;DHT22;34538;48.836;9.174;2022-12-10T00:16:52;2.30;99.90
48744;DHT22;34538;48.836;9.174;2022-12-10T00:19:21;2.30;99.90
48744;DHT22;34538;48.836;9.174;2022-12-10T00:21:47;2.30;99.90
48744;DHT22;34538;48.836;9.174;2022-12-10T00:24:14;2.30;99.90
48744;DHT22;34538;48.836;9.174;2022-12-10T00:26:41;2.30;99.90
48744;DHT22;34538;48.836;9.174;2022-12-10T00:29:10;2.30;99.90
48744;DHT22;34538;48.836;9.174;2022-12-10T00:31:38;2.30;99.90
48744;DHT22;34538;48.836;9.174;2022-12-10T00:34:07;2.30;99.90
48744;DHT22;34538;48.836;9.174;2022-12-10T00:36:39;2.30;99.90
48744;DHT22;34538;48.836;9.174;2022-12-10T00:39:08;2.30;99.90
48744;DHT22;34538;48.836;9.174;2022-12-10T00:41:35;2.30;99.90
48744;DHT22;34538;48.836;9.174;2022-12-10T00:44:02;2.30;99.90
48744;DHT22;34538;48.836;9.174;2022-12-10T00:46:29;2.30;99.90
48744;DHT22;34538;48.836;9.174;2022-12-10T00:48:57;2.30;99.90
48744;DHT22;34538;48.836;9.174;2022-12-10T00:51:25;2.30;99.90
48744;DHT22;34538;48.836;9.174;2022-12-10T00:53:55;2.30;99.90
48744;DHT22;34538;48.836;9.174;2022-12-10T00:56:24;2.30;99.90
48744;DHT22;34538;48.836;9.174;2022-12-10T00:58:52;2.30;99.90
48744;DHT22;34538;48.836;9.174;2022-12-10T01:01:20;2.30;99.90
48744;DHT22;34538;48.836;9.174;2022-12-10T01:03:50;2.30;99.90
48744;DHT22;34538;48.836;9.174;2022-12-10T01:06:19;2.30;99.90
48744;DHT22;34538;48.836;9.174;2022-12-10T01:08:47;2.30;99.90
48744;DHT22;34538;48.836;9.174;2022-12-10T01:11:18;2.30;99.90
48744;DHT22;34538;48.836;9.174;2022-12-10T01:13:46;2.30;99.90
48744;DHT22;34538;48.836;9.174;2022-12-10T01:16:14;2.30;99.90
48744;DHT22;34538;48.836;9.174;2022-12-10T01:18:43;2.30;99.90
48744;DHT22;34538;48.836;9.174;2022-12-10T01:21:11;2.30;99.90
48744;DHT22;34538;48.836;9.174;2022-12-10T01:23:40;2.30;99.90
48744;DHT22;34538;48.836;9.174;2022-12-10T01:26:09;2.30;99.90
48744;DHT22;34538;48.836;9.174;2022-12-10T01:28:38;2.20;99.90
48744;DHT22;34538;48.836;9.174;2022-12-10T01:31:11;2.20;99.90
48744;DHT22;34538;48.836;9.174;2022-12-10T01:33:39;2.20;99.90
48744;DHT22;34538;48.836;9.174;2022-12-10T01:36:09;2.20;99.90
48744;DHT22;34538;48.836;9.174;2022-12-10T01:38:37;2.20;99.90
48744;DHT22;34538;48.836;9.174;2022-12-10T01:41:05;2.10;99.90
48744;DHT22;34538;48.836;9.174;2022-12-10T01:46:28;2.20;99.90
48744;DHT22;34538;48.836;9.174;2022-12-10T01:48:55;2.20;99.90
48744;DHT22;34538;48.836;9.174;2022-12-10T01:51:24;2.20;99.90
48744;DHT22;34538;48.836;9.174;2022-12-10T01:53:52;2.20;99.90
48744;DHT22;34538;48.836;9.174;2022-12-10T01:56:20;2.20;99.90
48744;DHT22;34538;48.836;9.174;2022-12-10T01:58:49;2.20;99.90
48744;DHT22;34538;48.836;9.174;2022-12-10T02:01:23;2.20;99.90
48744;DHT22;34538;48.836;9.174;2022-12-10T02:03:58;2.20;99.90
48744;DHT22;34538;48.836;9.174;2022-12-10T02:06:42;2.20;99.90
48744;DHT22;34538;48.836;9.174;2022-12-10T02:09:17;2.20;99.90
48744;DHT22;34538;48.836;9.174;2022-12-10T02:11:54;2.20;99.90
48744;DHT22;34538;48.836;9.174;2022-12-10T02:14:30;2.20;99.90
48744;DHT22;34538;48.836;9.174;2022-12-10T02:17:07;2.10;99.90
48744;DHT22;34538;48.836;9.174;2022-12-10T02:19:59;2.10;99.90
48744;DHT22;34538;48.836;9.174;2022-12-10T02:22:32;2.10;99.90
48744;DHT22;34538;48.836;9.174;2022-12-10T02:25:01;2.10;99.90
48744;DHT22;34538;48.836;9.174;2022-12-10T02:27:34;2.10;99.90
48744;DHT22;34538;48.836;9.174;2022-12-10T02:30:04;2.10;99.90
48744;DHT22;34538;48.836;9.174;2022-12-10T02:32:34;2.10;99.90
48744;DHT22;34538;48.836;9.174;2022-12-10T02:35:06;2.10;99.90
48744;DHT22;34538;48.836;9.174;2022-12-10T02:37:38;2.10;99.90
48744;DHT22;34538;48.836;9.174;2022-12-10T02:40:11;2.10;99.90
48744;DHT22;34538;48.836;9.174;2022-12-10T02:42:44;2.10;99.90
48744;DHT22;34538;48.836;9.174;2022-12-10T02:45:15;2.10;99.90
48744;DHT22;34538;48.836;9.174;2022-12-10T02:47:43;2.10;99.90
48744;DHT22;34538;48.836;9.174;2022-12-10T02:50:15;2.10;99.90
48744;DHT22;34538;48.836;9.174;2022-12-10T02:52:42;2.00;99.90
48744;DHT22;34538;48.836;9.174;2022-12-10T02:55:11;2.00;99.90
48744;DHT22;34538;48.836;9.174;2022-12-10T02:57:44;2.00;99.90
48744;DHT22;34538;48.836;9.174;2022-12-10T03:00:18;1.90;99.90
48744;DHT22;34538;48.836;9.174;2022-12-10T03:03:02;1.90;99.90
48744;DHT22;34538;48.836;9.174;2022-12-10T03:05:35;1.90;99.90
48744;DHT22;34538;48.836;9.174;2022-12-10T03:08:08;1.80;99.90
48744;DHT22;34538;48.836;9.174;2022-12-10T03:10:42;1.70;99.90
48744;DHT22;34538;48.836;9.174;2022-12-10T03:13:15;1.80;99.90
48744;DHT22;34538;48.836;9.174;2022-12-10T03:15:45;1.70;99.90
48744;DHT22;34538;48.836;9.174;2022-12-10T03:18:15;1.70;99.90
48744;DHT22;34538;48.836;9.174;2022-12-10T03:20:45;1.70;99.90
48744;DHT22;34538;48.836;9.174;2022-12-10T03:23:15;1.70;99.90
48744;DHT22;34538;48.836;9.174;2022-12-10T03:25:43;1.70;99.90
48744;DHT22;34538;48.836;9.174;2022-12-10T03:28:11;1.70;99.90
48744;DHT22;34538;48.836;9.174;2022-12-10T03:30:39;1.70;99.90
48744;DHT22;34538;48.836;9.174;2022-12-10T03:33:09;1.70;99.90
48744;DHT22;34538;48.836;9.174;2022-12-10T03:35:36;1.70;99.90
48744;DHT22;34538;48.836;9.174;2022-12-10T03:38:04;1.70;99.90
48744;DHT22;34538;48.836;9.174;2022-12-10T03:40:31;1.70;99.90
48744;DHT22;34538;48.836;9.174;2022-12-10T03:42:58;1.70;99.90
48744;DHT22;34538;48.836;9.174;2022-12-10T03:45:25;1.60;99.90
48744;DHT22;34538;48.836;9.174;2022-12-10T03:47:52;1.60;99.90
48744;DHT22;34538;48.836;9.174;2022-12-10T03:50:21;1.60;99.90
48744;DHT22;34538;48.836;9.174;2022-12-10T03:52:48;1.50;99.90
48744;DHT22;34538;48.836;9.174;2022-12-10T03:55:15;1.50;99.90
48744;DHT22;34538;48.836;9.174;2022-12-10T03:57:41;1.50;99.90
48744;DHT22;34538;48.836;9.174;2022-12-10T04:00:10;1.60;99.90
48744;DHT22;34538;48.836;9.174;2022-12-10T04:02:40;1.60;99.90
48744;DHT22;34538;48.836;9.174;2022-12-10T04:05:07;1.60;99.90
48744;DHT22;34538;48.836;9.174;2022-12-10T04:07:36;1.60;99.90
48744;DHT22;34538;48.836;9.174;2022-12-10T04:10:03;1.60;99.90
48744;DHT22;34538;48.836;9.174;2022-12-10T04:12:30;1.70;99.90
48744;DHT22;34538;48.836;9.174;2022-12-10T04:14:57;1.70;99.90
48744;DHT22;34538;48.836;9.174;2022-12-10T04:17:41;1.70;99.90
48744;DHT22;34538;48.836;9.174;2022-12-10T04:20:08;1.70;99.90
48744;DHT22;34538;48.836;9.174;2022-12-10T04:22:57;1.80;99.90
48744;DHT22;34538;48.836;9.174;2022-12-10T04:25:41;1.70;99.90
48744;DHT22;34538;48.836;9.174;2022-12-10T04:28:26;1.70;99.90
48744;DHT22;34538;48.836;9.174;2022-12-10T04:30:53;1.70;99.90
48744;DHT22;34538;48.836;9.174;2022-12-10T04:33:20;1.70;99.90
48744;DHT22;34538;48.836;9.174;2022-12-10T04:35:47;1.70;99.90
48744;DHT22;34538;48.836;9.174;2022-12-10T04:38:15;1.70;99.90
48744;DHT22;34538;48.836;9.174;2022-12-10T04:40:42;1.70;99.90
48744;DHT22;34538;48.836;9.174;2022-12-10T04:43:09;1.70;99.90
48744;DHT22;34538;48.836;9.174;2022-12-10T04:45:35;1.70;99.90
48744;DHT22;34538;48.836;9.174;2022-12-10T04:48:05;1.70;99.90
48744;DHT22;34538;48.836;9.174;2022-12-10T04:50:32;1.70;99.90
48744;DHT22;34538;48.836;9.174;2022-12-10T04:52:59;1.70;99.90
48744;DHT22;34538;48.836;9.174;2022-12-10T04:55:27;1.70;99.90
48744;DHT22;34538;48.836;9.174;2022-12-10T04:57:54;1.70;99.90
48744;DHT22;34538;48.836;9.174;2022-12-10T05:00:22;1.70;99.90
48744;DHT22;34538;48.836;9.174;2022-12-10T05:02:50;1.60;99.90
48744;DHT22;34538;48.836;9.174;2022-12-10T05:05:17;1.60;99.90
48744;DHT22;34538;48.836;9.174;2022-12-10T05:07:44;1.60;99.90
48744;DHT22;34538;48.836;9.174;2022-12-10T05:10:13;1.50;99.90
48744;DHT22;34538;48.836;9.174;2022-12-10T05:12:41;1.50;99.90
48744;DHT22;34538;48.836;9.174;2022-12-10T05:15:09;1.50;99.90
48744;DHT22;34538;48.836;9.174;2022-12-10T05:17:36;1.40;99.90
48744;DHT22;34538;48.836;9.174;2022-12-10T05:20:03;1.40;99.90
48744;DHT22;34538;48.836;9.174;2022-12-10T05:22:30;1.40;99.90
48744;DHT22;34538;48.836;9.174;2022-12-10T05:25:14;1.40;99.90
48744;DHT22;34538;48.836;9.174;2022-12-10T05:27:42;1.30;99.90
48744;DHT22;34538;48.836;9.174;2022-12-10T05:30:10;1.30;99.90
48744;DHT22;34538;48.836;9.174;2022-12-10T05:32:37;1.30;99.90
48744;DHT22;34538;48.836;9.174;2022-12-10T05:35:05;1.30;99.90
48744;DHT22;34538;48.836;9.174;2022-12-10T05:37:32;1.20;99.90
48744;DHT22;34538;48.836;9.174;2022-12-10T05:39:59;1.20;99.90
48744;DHT22;34538;48.836;9.174;2022-12-10T05:42:26;1.20;99.90
48744;DHT22;34538;48.836;9.174;2022-12-10T05:44:54;1.20;99.90
48744;DHT22;34538;48.836;9.174;2022-12-10T05:47:21;1.20;99.90
48744;DHT22;34538;48.836;9.174;2022-12-10T05:49:48;1.20;99.90
48744;DHT22;34538;48.836;9.174;2022-12-10T05:52:14;1.20;99.90
48744;DHT22;34538;48.836;9.174;2022-12-10T05:54:41;1.20;99.90
48744;DHT22;34538;48.836;9.174;2022-12-10T05:57:08;1.20;99.90
48744;DHT22;34538;48.836;9.174;2022-12-10T05:59:35;1.20;99.90
48744;DHT22;34538;48.836;9.174;2022-12-10T06:02:03;1.20;99.90
48744;DHT22;34538;48.836;9.174;2022-12-10T06:04:30;1.20;99.90
48744;DHT22;34538;48.836;9.174;2022-12-10T06:06:57;1.20;99.90
48744;DHT22;34538;48.836;9.174;2022-12-10T06:09:24;1.20;99.90
48744;DHT22;34538;48.836;9.174;2022-12-10T06:11:50;1.20;99.90
48744;DHT22;34538;48.836;9.174;2022-12-10T06:14:17;1.20;99.90
48744;DHT22;34538;48.836;9.174;2022-12-10T06:16:44;1.20;99.90
48744;DHT22;34538;48.836;9.174;2022-12-10T06:19:12;1.20;99.90
48744;DHT22;34538;48.836;9.174;2022-12-10T06:21:39;1.20;99.90
48744;DHT22;34538;48.836;9.174;2022-12-10T06:24:07;1.20;99.90
48744;DHT22;34538;48.836;9.174;2022-12-10T06:26:34;1.20;99.90
48744;DHT22;34538;48.836;9.174;2022-12-10T06:29:01;1.20;99.90
48744;DHT22;34538;48.836;9.174;2022-12-10T06:31:30;1.20;99.90
48744;DHT22;34538;48.836;9.174;2022-12-10T06:33:57;1.20;99.90
48744;DHT22;34538;48.836;9.174;2022-12-10T06:36:25;1.20;99.90
48744;DHT22;34538;48.836;9.174;2022-12-10T06:38:52;1.20;99.90
48744;DHT22;34538;48.836;9.174;2022-12-10T06:41:19;1.20;99.90
48744;DHT22;34538;48.836;9.174;2022-12-10T06:43:47;1.20;99.90
48744;DHT22;34538;48.836;9.174;2022-12-10T06:46:16;1.20;99.90
48744;DHT22;34538;48.836;9.174;2022-12-10T06:48:44;1.20;99.90
48744;DHT22;34538;48.836;9.174;2022-12-10T06:51:11;1.20;99.90
48744;DHT22;34538;48.836;9.174;2022-12-10T06:53:40;1.30;99.90
48744;DHT22;34538;48.836;9.174;2022-12-10T06:56:09;1.30;99.90
48744;DHT22;34538;48.836;9.174;2022-12-10T06:58:37;1.30;99.90
48744;DHT22;34538;48.836;9.174;2022-12-10T07:01:08;1.30;99.90
48744;DHT22;34538;48.836;9.174;2022-12-10T07:03:35;1.40;99.90
48744;DHT22;34538;48.836;9.174;2022-12-10T07:06:03;1.40;99.90
48744;DHT22;34538;48.836;9.174;2022-12-10T07:08:30;1.40;99.90
48744;DHT22;34538;48.836;9.174;2022-12-10T07:10:59;1.40;99.90
48744;DHT22;34538;48.836;9.174;2022-12-10T07:13:26;1.40;99.90
48744;DHT22;34538;48.836;9.174;2022-12-10T07:15:52;1.50;99.90
48744;DHT22;34538;48.836;9.174;2022-12-10T07:18:19;1.50;99.90
48744;DHT22;34538;48.836;9.174;2022-12-10T07:20:47;1.40;99.90
48744;DHT22;34538;48.836;9.174;2022-12-10T07:23:14;1.50;99.90
48744;DHT22;34538;48.836;9.174;2022-12-10T07:25:41;1.50;99.90
48744;DHT22;34538;48.836;9.174;2022-12-10T07:28:09;1.40;99.90
48744;DHT22;34538;48.836;9.174;2022-12-10T07:30:36;1.40;99.90
48744;DHT22;34538;48.836;9.174;2022-12-10T07:33:03;1.50;99.90
48744;DHT22;34538;48.836;9.174;2022-12-10T07:35:30;1.40;99.90
48744;DHT22;34538;48.836;9.174;2022-12-10T07:37:57;1.50;99.90
48744;DHT22;34538;48.836;9.174;2022-12-10T07:40:24;1.50;99.90
48744;DHT22;34538;48.836;9.174;2022-12-10T07:42:51;1.50;99.90
48744;DHT22;34538;48.836;9.174;2022-12-10T07:45:19;1.50;99.90
48744;DHT22;34538;48.836;9.174;2022-12-10T07:47:46;1.50;99.90
48744;DHT22;34538;48.836;9.174;2022-12-10T07:50:13;1.60;99.90
48744;DHT22;34538;48.836;9.174;2022-12-10T07:52:40;1.50;99.90
48744;DHT22;34538;48.836;9.174;2022-12-10T07:55:07;1.50;99.90
48744;DHT22;34538;48.836;9.174;2022-12-10T07:57:34;1.60;99.90
48744;DHT22;34538;48.836;9.174;2022-12-10T08:00:02;1.60;99.90
48744;DHT22;34538;48.836;9.174;2022-12-10T08:02:39;1.60;99.90
48744;DHT22;34538;48.836;9.174;2022-12-10T08:05:06;1.60;99.90
48744;DHT22;34538;48.836;9.174;2022-12-10T08:07:33;1.60;99.90
48744;DHT22;34538;48.836;9.174;2022-12-10T08:10:00;1.60;99.90
48744;DHT22;34538;48.836;9.174;2022-12-10T08:12:26;1.70;99.90
48744;DHT22;34538;48.836;9.174;2022-12-10T08:14:53;1.70;99.90
48744;DHT22;34538;48.836;9.174;2022-12-10T08:17:20;1.70;99.90
48744;DHT22;34538;48.836;9.174;2022-12-10T08:19:49;1.70;99.90
48744;DHT22;34538;48.836;9.174;2022-12-10T08:22:16;1.70;99.90
48744;DHT22;34538;48.836;9.174;2022-12-10T08:24:43;1.70;99.90
48744;DHT22;34538;48.836;9.174;2022-12-10T08:27:10;1.80;99.90
48744;DHT22;34538;48.836;9.174;2022-12-10T08:29:37;1.80;99.90
48744;DHT22;34538;48.836;9.174;2022-12-10T08:32:03;1.80;99.90
48744;DHT22;34538;48.836;9.174;2022-12-10T08:34:30;1.80;99.90
48744;DHT22;34538;48.836;9.174;2022-12-10T08:36:58;1.80;99.90
48744;DHT22;34538;48.836;9.174;2022-12-10T08:39:27;1.80;99.90
48744;DHT22;34538;48.836;9.174;2022-12-10T08:41:54;1.80;99.90
48744;DHT22;34538;48.836;9.174;2022-12-10T08:44:21;1.80;99.90
48744;DHT22;34538;48.836;9.174;2022-12-10T08:46:48;1.80;99.90
48744;DHT22;34538;48.836;9.174;2022-12-10T08:49:15;1.80;99.90
48744;DHT22;34538;48.836;9.174;2022-12-10T08:51:41;1.80;99.90
48744;DHT22;34538;48.836;9.174;2022-12-10T08:54:10;1.70;99.90
48744;DHT22;34538;48.836;9.174;2022-12-10T08:56:36;1.80;99.90
48744;DHT22;34538;48.836;9.174;2022-12-10T08:59:04;1.80;99.90
48744;DHT22;34538;48.836;9.174;2022-12-10T09:01:32;1.90;99.90
48744;DHT22;34538;48.836;9.174;2022-12-10T09:03:59;1.90;99.90
48744;DHT22;34538;48.836;9.174;2022-12-10T09:06:26;2.00;99.90
48744;DHT22;34538;48.836;9.174;2022-12-10T09:08:53;1.90;99.90
48744;DHT22;34538;48.836;9.174;2022-12-10T09:11:24;2.00;99.90
48744;DHT22;34538;48.836;9.174;2022-12-10T09:13:52;2.00;99.90
48744;DHT22;34538;48.836;9.174;2022-12-10T09:16:21;1.90;99.90
48744;DHT22;34538;48.836;9.174;2022-12-10T09:18:53;2.00;99.90
48744;DHT22;34538;48.836;9.174;2022-12-10T09:21:20;2.00;99.90
48744;DHT22;34538;48.836;9.174;2022-12-10T09:23:47;2.00;99.90
48744;DHT22;34538;48.836;9.174;2022-12-10T09:26:15;2.00;99.90
48744;DHT22;34538;48.836;9.174;2022-12-10T09:28:44;2.00;99.90
48744;DHT22;34538;48.836;9.174;2022-12-10T09:31:13;2.10;99.90
48744;DHT22;34538;48.836;9.174;2022-12-10T09:33:41;2.10;99.90
48744;DHT22;34538;48.836;9.174;2022-12-10T09:36:09;2.10;99.90
48744;DHT22;34538;48.836;9.174;2022-12-10T09:38:38;2.10;99.90
48744;DHT22;34538;48.836;9.174;2022-12-10T09:41:20;2.10;99.90
48744;DHT22;34538;48.836;9.174;2022-12-10T09:43:59;2.10;99.90
48744;DHT22;34538;48.836;9.174;2022-12-10T09:46:39;2.20;99.90
48744;DHT22;34538;48.836;9.174;2022-12-10T09:49:14;2.20;99.90
48744;DHT22;34538;48.836;9.174;2022-12-10T09:51:45;2.20;99.90
48744;DHT22;34538;48.836;9.174;2022-12-10T09:54:24;2.20;99.90
48744;DHT22;34538;48.836;9.174;2022-12-10T09:56:53;2.20;99.90
48744;DHT22;34538;48.836;9.174;2022-12-10T09:59:25;2.20;99.90
48744;DHT22;34538;48.836;9.174;2022-12-10T10:02:02;2.20;99.90
48744;DHT22;34538;48.836;9.174;2022-12-10T10:04:35;2.10;99.90
48744;DHT22;34538;48.836;9.174;2022-12-10T10:07:04;2.10;99.90
48744;DHT22;34538;48.836;9.174;2022-12-10T10:09:37;2.10;99.90
48744;DHT22;34538;48.836;9.174;2022-12-10T10:12:11;2.10;99.90
48744;DHT22;34538;48.836;9.174;2022-12-10T10:14:41;2.10;99.90
48744;DHT22;34538;48.836;9.174;2022-12-10T10:17:12;2.10;99.90
48744;DHT22;34538;48.836;9.174;2022-12-10T10:19:40;2.10;99.90
48744;DHT22;34538;48.836;9.174;2022-12-10T10:22:10;2.20;99.90
48744;DHT22;34538;48.836;9.174;2022-12-10T10:24:40;2.30;99.90
48744;DHT22;34538;48.836;9.174;2022-12-10T10:27:13;2.30;99.90
48744;DHT22;34538;48.836;9.174;2022-12-10T10:29:43;2.40;99.90
48744;DHT22;34538;48.836;9.174;2022-12-10T10:32:14;2.30;99.90
48744;DHT22;34538;48.836;9.174;2022-12-10T10:34:41;2.40;99.90
48744;DHT22;34538;48.836;9.174;2022-12-10T10:37:29;2.30;99.90
48744;DHT22;34538;48.836;9.174;2022-12-10T10:39:58;2.30;99.90
48744;DHT22;34538;48.836;9.174;2022-12-10T10:42:33;2.30;99.90
48744;DHT22;34538;48.836;9.174;2022-12-10T10:45:05;2.30;99.90
48744;DHT22;34538;48.836;9.174;2022-12-10T10:47:33;2.40;99.90
48744;DHT22;34538;48.836;9.174;2022-12-10T10:50:03;2.40;99.90
48744;DHT22;34538;48.836;9.174;2022-12-10T10:52:36;2.40;99.90
48744;DHT22;34538;48.836;9.174;2022-12-10T10:55:04;2.40;99.90
48744;DHT22;34538;48.836;9.174;2022-12-10T10:57:34;2.40;99.90
48744;DHT22;34538;48.836;9.174;2022-12-10T11:00:10;2.40;99.90
48744;DHT22;34538;48.836;9.174;2022-12-10T11:02:44;2.40;99.90
48744;DHT22;34538;48.836;9.174;2022-12-10T11:05:23;2.30;99.90
48744;DHT22;34538;48.836;9.174;2022-12-10T11:07:57;2.30;99.90
48744;DHT22;34538;48.836;9.174;2022-12-10T11:10:25;2.30;99.90
48744;DHT22;34538;48.836;9.174;2022-12-10T11:12:55;2.40;99.90
48744;DHT22;34538;48.836;9.174;2022-12-10T11:15:33;2.40;99.90
48744;DHT22;34538;48.836;9.174;2022-12-10T11:18:01;2.50;99.90
48744;DHT22;34538;48.836;9.174;2022-12-10T11:20:30;2.50;99.90
48744;DHT22;34538;48.836;9.174;2022-12-10T11:22:58;2.50;99.90
48744;DHT22;34538;48.836;9.174;2022-12-10T11:25:41;2.50;99.90
48744;DHT22;34538;48.836;9.174;2022-12-10T11:28:25;2.50;99.90
48744;DHT22;34538;48.836;9.174;2022-12-10T11:31:11;2.60;99.90
48744;DHT22;34538;48.836;9.174;2022-12-10T11:33:44;2.50;99.90
48744;DHT22;34538;48.836;9.174;2022-12-10T11:36:23;2.50;99.90
48744;DHT22;34538;48.836;9.174;2022-12-10T11:39:01;2.60;99.90
48744;DHT22;34538;48.836;9.174;2022-12-10T11:41:34;2.50;99.90
48744;DHT22;34538;48.836;9.174;2022-12-10T11:44:16;2.50;99.90
48744;DHT22;34538;48.836;9.174;2022-12-10T11:49:41;2.60;99.90
48744;DHT22;34538;48.836;9.174;2022-12-10T11:52:17;2.60;99.90
48744;DHT22;34538;48.836;9.174;2022-12-10T11:54:56;2.50;99.90
48744;DHT22;34538;48.836;9.174;2022-12-10T11:57:33;2.60;99.90
48744;DHT22;34538;48.836;9.174;2022-12-10T12:00:12;2.60;99.90
48744;DHT22;34538;48.836;9.174;2022-12-10T12:03:06;2.60;99.90
48744;DHT22;34538;48.836;9.174;2022-12-10T12:06:00;2.60;99.90
48744;DHT22;34538;48.836;9.174;2022-12-10T12:08:38;2.60;99.90
48744;DHT22;34538;48.836;9.174;2022-12-10T12:11:19;2.60;99.90
48744;DHT22;34538;48.836;9.174;2022-12-10T12:13:54;2.60;99.90
48744;DHT22;34538;48.836;9.174;2022-12-10T12:16:27;2.60;99.90
48744;DHT22;34538;48.836;9.174;2022-12-10T12:19:02;2.60;99.90
48744;DHT22;34538;48.836;9.174;2022-12-10T12:21:29;2.60;99.90
48744;DHT22;34538;48.836;9.174;2022-12-10T12:23:59;2.60;99.90
48744;DHT22;34538;48.836;9.174;2022-12-10T12:26:30;2.60;99.90
48744;DHT22;34538;48.836;9.174;2022-12-10T12:29:05;2.70;99.90
48744;DHT22;34538;48.836;9.174;2022-12-10T12:31:36;2.70;99.90
48744;DHT22;34538;48.836;9.174;2022-12-10T12:34:15;2.70;99.90
48744;DHT22;34538;48.836;9.174;2022-12-10T12:36:44;2.70;99.90
48744;DHT22;34538;48.836;9.174;2022-12-10T12:39:19;2.80;99.90
48744;DHT22;34538;48.836;9.174;2022-12-10T12:41:51;2.70;99.90
48744;DHT22;34538;48.836;9.174;2022-12-10T12:44:27;2.70;99.90
48744;DHT22;34538;48.836;9.174;2022-12-10T12:46:58;2.80;99.90
48744;DHT22;34538;48.836;9.174;2022-12-10T12:49:32;2.80;99.90
48744;DHT22;34538;48.836;9.174;2022-12-10T12:52:03;2.80;99.90
48744;DHT22;34538;48.836;9.174;2022-12-10T12:54:32;2.80;99.90
48744;DHT22;34538;48.836;9.174;2022-12-10T12:57:03;2.80;99.90
48744;DHT22;34538;48.836;9.174;2022-12-10T12:59:40;2.80;99.90
48744;DHT22;34538;48.836;9.174;2022-12-10T13:02:20;2.80;99.90
48744;DHT22;34538;48.836;9.174;2022-12-10T13:04:51;2.80;99.90
48744;DHT22;34538;48.836;9.174;2022-12-10T13:07:33;2.90;99.90
48744;DHT22;34538;48.836;9.174;2022-12-10T13:10:24;2.80;99.90
48744;DHT22;34538;48.836;9.174;2022-12-10T13:13:05;2.90;99.90
48744;DHT22;34538;48.836;9.174;2022-12-10T13:15:34;2.90;99.90
48744;DHT22;34538;48.836;9.174;2022-12-10T13:20:49;2.80;99.90
48744;DHT22;34538;48.836;9.174;2022-12-10T13:23:32;2.80;99.90
48744;DHT22;34538;48.836;9.174;2022-12-10T13:26:01;2.90;99.90
48744;DHT22;34538;48.836;9.174;2022-12-10T13:28:48;2.80;99.90
48744;DHT22;34538;48.836;9.174;2022-12-10T13:31:35;2.90;99.90
48744;DHT22;34538;48.836;9.174;2022-12-10T13:34:21;2.80;99.90
48744;DHT22;34538;48.836;9.174;2022-12-10T13:37:18;2.80;99.90
48744;DHT22;34538;48.836;9.174;2022-12-10T13:40:01;2.70;99.90
48744;DHT22;34538;48.836;9.174;2022-12-10T13:42:31;2.70;99.90
48744;DHT22;34538;48.836;9.174;2022-12-10T13:45:33;2.60;99.90
48744;DHT22;34538;48.836;9.174;2022-12-10T13:48:26;2.60;99.90
48744;DHT22;34538;48.836;9.174;2022-12-10T13:51:08;2.60;99.90
48744;DHT22;34538;48.836;9.174;2022-12-10T13:53:47;2.60;99.90
48744;DHT22;34538;48.836;9.174;2022-12-10T13:56:20;2.60;99.90
48744;DHT22;34538;48.836;9.174;2022-12-10T13:58:55;2.60;99.90
48744;DHT22;34538;48.836;9.174;2022-12-10T14:01:44;2.60;99.90
48744;DHT22;34538;48.836;9.174;2022-12-10T14:04:27;2.60;99.90
48744;DHT22;34538;48.836;9.174;2022-12-10T14:06:57;2.60;99.90
48744;DHT22;34538;48.836;9.174;2022-12-10T14:09:28;2.60;99.90
48744;DHT22;34538;48.836;9.174;2022-12-10T14:11:59;2.50;99.90
48744;DHT22;34538;48.836;9.174;2022-12-10T14:14:31;2.50;99.90
48744;DHT22;34538;48.836;9.174;2022-12-10T14:17:00;2.50;99.90
48744;DHT22;34538;48.836;9.174;2022-12-10T14:19:28;2.50;99.90
48744;DHT22;34538;48.836;9.174;2022-12-10T14:21:56;2.50;99.90
48744;DHT22;34538;48.836;9.174;2022-12-10T14:24:30;2.50;99.90
48744;DHT22;34538;48.836;9.174;2022-12-10T14:26:59;2.50;99.90
48744;DHT22;34538;48.836;9.174;2022-12-10T14:29:27;2.50;99.90
48744;DHT22;34538;48.836;9.174;2022-12-10T14:31:55;2.50;99.90
48744;DHT22;34538;48.836;9.174;2022-12-10T14:34:24;2.50;99.90
48744;DHT22;34538;48.836;9.174;2022-12-10T14:36:54;2.50;99.90
48744;DHT22;34538;48.836;9.174;2022-12-10T14:39:25;2.40;99.90
48744;DHT22;34538;48.836;9.174;2022-12-10T14:41:56;2.40;99.90
48744;DHT22;34538;48.836;9.174;2022-12-10T14:44:24;2.40;99.90
48744;DHT22;34538;48.836;9.174;2022-12-10T14:46:52;2.30;99.90
48744;DHT22;34538;48.836;9.174;2022-12-10T14:49:28;2.40;99.90
48744;DHT22;34538;48.836;9.174;2022-12-10T14:51:56;2.30;99.90
48744;DHT22;34538;48.836;9.174;2022-12-10T14:54:25;2.30;99.90
48744;DHT22;34538;48.836;9.174;2022-12-10T14:56:54;2.30;99.90
48744;DHT22;34538;48.836;9.174;2022-12-10T14:59:24;2.20;99.90
48744;DHT22;34538;48.836;9.174;2022-12-10T15:01:57;2.20;99.90
48744;DHT22;34538;48.836;9.174;2022-12-10T15:04:30;2.20;99.90
48744;DHT22;34538;48.836;9.174;2022-12-10T15:07:05;2.10;99.90
48744;DHT22;34538;48.836;9.174;2022-12-10T15:09:34;2.10;99.90
48744;DHT22;34538;48.836;9.174;2022-12-10T15:12:03;2.10;99.90
48744;DHT22;34538;48.836;9.174;2022-12-10T15:14:30;2.00;99.90
48744;DHT22;34538;48.836;9.174;2022-12-10T15:16:57;2.00;99.90
48744;DHT22;34538;48.836;9.174;2022-12-10T15:19:30;2.00;99.90
48744;DHT22;34538;48.836;9.174;2022-12-10T15:22:00;2.00;99.90
48744;DHT22;34538;48.836;9.174;2022-12-10T15:24:32;2.00;99.90
48744;DHT22;34538;48.836;9.174;2022-12-10T15:27:15;1.90;99.90
48744;DHT22;34538;48.836;9.174;2022-12-10T15:29:42;1.90;99.90
48744;DHT22;34538;48.836;9.174;2022-12-10T15:32:12;1.90;99.90
48744;DHT22;34538;48.836;9.174;2022-12-10T15:34:43;1.90;99.90
48744;DHT22;34538;48.836;9.174;2022-12-10T15:37:21;1.90;99.90
48744;DHT22;34538;48.836;9.174;2022-12-10T15:39:51;1.90;99.90
48744;DHT22;34538;48.836;9.174;2022-12-10T15:42:36;1.90;99.90
48744;DHT22;34538;48.836;9.174;2022-12-10T15:45:11;1.90;99.90
48744;DHT22;34538;48.836;9.174;2022-12-10T15:47:39;1.80;99.90
48744;DHT22;34538;48.836;9.174;2022-12-10T15:50:06;1.80;99.90
48744;DHT22;34538;48.836;9.174;2022-12-10T15:52:33;1.80;99.90
48744;DHT22;34538;48.836;9.174;2022-12-10T15:55:00;1.70;99.90
48744;DHT22;34538;48.836;9.174;2022-12-10T15:57:30;1.70;99.90
48744;DHT22;34538;48.836;9.174;2022-12-10T15:59:58;1.70;99.90
48744;DHT22;34538;48.836;9.174;2022-12-10T16:02:32;1.60;99.90
48744;DHT22;34538;48.836;9.174;2022-12-10T16:05:02;1.60;99.90
48744;DHT22;34538;48.836;9.174;2022-12-10T16:07:29;1.60;99.90
48744;DHT22;34538;48.836;9.174;2022-12-10T16:09:58;1.50;99.90
48744;DHT22;34538;48.836;9.174;2022-12-10T16:12:24;1.50;99.90
48744;DHT22;34538;48.836;9.174;2022-12-10T16:14:55;1.50;99.90
48744;DHT22;34538;48.836;9.174;2022-12-10T16:17:25;1.40;99.90